Evanston-Uinta County Airport-Burns Field Evanston US
ICAO: KEVW
IATA: EVW
Category: Medium
Scheduled Services: No

Elevation: 7143 ft
TransAlt. 18000 ft.

Airport Communications:
ASOS:120
SALT LAKE CITY CNTR:127.7
CTAF/UNICOM:122.8

KEVW Zoom In..

If you have problems with the map follow the link
https://www.worldairports.se/pages/airport.php?
ICAO=KEVW

Runways:

(A) RW 05 length 7300 ft width 100 ft
---- / hdg 54

(B) RW 23 length 7300 ft width 100 ft
ILS 108.90 / hdg 234

Location; KEVW
Day. 14 / Time. 10.53 Zulu
* Altimeter: 30.49
* Temperature: -04° c. -24.8°f.
* Wind from: 200° Speed 06 kn.
Dewpoint: -12° c.
Visibility: 10 Statute Miles.
Clouds: Clear (automated report).

KEVW 141053Z AUTO 20006KT 10SM CLR M04/M12 A3049 RMK AO2 SLP324 T10391117


Wind From 200°
Speed 06 kn.

 
 
jpsmedia.com for Web Design worldairports.se 2018   terms of use